createdAt,value
2023-05-09T00:01:47.624Z,13.70
2023-05-09T00:04:16.243Z,13.70
2023-05-09T00:06:43.637Z,13.70
2023-05-09T00:09:11.222Z,13.70
2023-05-09T00:11:38.651Z,13.70
2023-05-09T00:14:06.711Z,13.70
2023-05-09T00:16:34.048Z,13.70
2023-05-09T00:19:01.326Z,13.70
2023-05-09T00:21:28.821Z,13.70
2023-05-09T00:23:56.611Z,13.70
2023-05-09T00:26:23.942Z,13.70
2023-05-09T00:28:51.275Z,13.70
2023-05-09T00:31:18.516Z,13.70
2023-05-09T00:33:45.901Z,13.70
2023-05-09T00:36:13.169Z,13.70
2023-05-09T00:38:40.417Z,13.70
2023-05-09T00:41:07.652Z,13.70
2023-05-09T00:43:34.874Z,13.70
2023-05-09T00:46:02.292Z,13.70
2023-05-09T00:48:29.781Z,13.80
2023-05-09T00:50:57.033Z,13.70
2023-05-09T00:53:24.541Z,13.70
2023-05-09T00:55:52.696Z,13.70
2023-05-09T00:58:21.181Z,13.70
2023-05-09T01:00:48.630Z,13.80
2023-05-09T01:03:16.014Z,13.70
2023-05-09T01:05:54.781Z,13.70
2023-05-09T01:08:22.034Z,13.70
2023-05-09T01:10:59.743Z,13.70
2023-05-09T01:13:30.216Z,13.70
2023-05-09T01:15:57.486Z,13.70
2023-05-09T01:18:35.290Z,13.70
2023-05-09T01:21:08.968Z,13.70
2023-05-09T01:23:36.327Z,13.70
2023-05-09T01:26:05.159Z,13.70
2023-05-09T01:28:38.601Z,13.60
2023-05-09T01:31:06.109Z,13.60
2023-05-09T01:33:33.969Z,13.60
2023-05-09T01:36:03.415Z,13.60
2023-05-09T01:38:31.289Z,13.70
2023-05-09T01:40:59.894Z,13.60
2023-05-09T01:43:28.787Z,13.60
2023-05-09T01:45:57.504Z,13.60
2023-05-09T01:48:26.430Z,13.60
2023-05-09T01:50:54.221Z,13.60
2023-05-09T01:53:22.264Z,13.60
2023-05-09T01:55:50.038Z,13.60
2023-05-09T01:58:17.346Z,13.60
2023-05-09T02:00:45.372Z,13.60
2023-05-09T02:03:13.091Z,13.60
2023-05-09T02:05:41.794Z,13.60
2023-05-09T02:08:09.495Z,13.60
2023-05-09T02:10:37.354Z,13.50
2023-05-09T02:13:04.646Z,13.60
2023-05-09T02:15:32.089Z,13.50
2023-05-09T02:17:59.442Z,13.60
2023-05-09T02:20:26.747Z,13.60
2023-05-09T02:22:54.079Z,13.50
2023-05-09T02:25:21.399Z,13.50
2023-05-09T02:27:48.732Z,13.50
2023-05-09T02:30:20.621Z,13.50
2023-05-09T02:32:48.994Z,13.60
2023-05-09T02:35:17.387Z,13.50
2023-05-09T02:37:46.191Z,13.50
2023-05-09T02:40:13.888Z,13.50
2023-05-09T02:42:41.214Z,13.50
2023-05-09T02:45:10.516Z,13.60
2023-05-09T02:47:38.277Z,13.50
2023-05-09T02:50:06.051Z,13.50
2023-05-09T02:52:33.344Z,13.50
2023-05-09T02:55:00.657Z,13.50
2023-05-09T02:57:27.979Z,13.40
2023-05-09T02:59:55.270Z,13.40
2023-05-09T03:02:23.892Z,13.50
2023-05-09T03:04:51.367Z,13.50
2023-05-09T03:07:18.836Z,13.40
2023-05-09T03:09:46.069Z,13.40
2023-05-09T03:12:13.349Z,13.40
2023-05-09T03:14:40.720Z,13.40
2023-05-09T03:17:08.006Z,13.40
2023-05-09T03:19:35.321Z,13.30
2023-05-09T03:22:02.560Z,13.30
2023-05-09T03:24:29.908Z,13.30
2023-05-09T03:26:57.150Z,13.30
2023-05-09T03:29:24.423Z,13.30
2023-05-09T03:31:52.084Z,13.30
2023-05-09T03:34:19.422Z,13.30
2023-05-09T03:36:46.697Z,13.30
2023-05-09T03:39:13.915Z,13.30
2023-05-09T03:41:41.835Z,13.30
2023-05-09T03:44:09.103Z,13.30
2023-05-09T03:46:36.422Z,13.20
2023-05-09T03:49:04.414Z,13.30
2023-05-09T03:51:32.480Z,13.20
2023-05-09T03:54:00.114Z,13.20
2023-05-09T03:56:27.448Z,13.20
2023-05-09T03:58:54.712Z,13.20
2023-05-09T04:01:21.982Z,13.20
2023-05-09T04:03:49.323Z,13.20
2023-05-09T04:06:16.650Z,13.10
2023-05-09T04:08:44.082Z,13.10
2023-05-09T04:11:11.388Z,13.10
2023-05-09T04:13:38.688Z,13.00
2023-05-09T04:16:06.074Z,13.10
2023-05-09T04:18:33.483Z,13.00
2023-05-09T04:21:01.130Z,13.10
2023-05-09T04:23:28.412Z,13.00
2023-05-09T04:25:56.090Z,13.00
2023-05-09T04:28:23.632Z,13.00
2023-05-09T04:30:51.183Z,13.20
2023-05-09T04:33:18.516Z,13.10
2023-05-09T04:35:46.100Z,13.00
2023-05-09T04:38:13.334Z,13.00
2023-05-09T04:40:40.673Z,12.90
2023-05-09T04:43:08.024Z,12.90
2023-05-09T04:45:35.333Z,12.90
2023-05-09T04:48:02.720Z,12.90
2023-05-09T04:50:30.194Z,13.00
2023-05-09T04:52:57.449Z,13.00
2023-05-09T04:55:24.702Z,13.00
2023-05-09T04:57:51.926Z,13.00
2023-05-09T05:00:19.428Z,13.00
2023-05-09T05:02:46.884Z,13.00
2023-05-09T05:05:14.500Z,13.10
2023-05-09T05:07:41.815Z,13.00
2023-05-09T05:10:09.485Z,13.00
2023-05-09T05:12:37.018Z,13.00
2023-05-09T05:15:04.665Z,13.10
2023-05-09T05:17:32.007Z,13.10
2023-05-09T05:19:59.305Z,13.10
2023-05-09T05:22:26.622Z,13.10
2023-05-09T05:24:53.879Z,13.00
2023-05-09T05:27:21.119Z,13.10
2023-05-09T05:29:48.805Z,13.10
2023-05-09T05:32:16.354Z,13.20
2023-05-09T05:34:43.688Z,13.20
2023-05-09T05:37:11.239Z,13.20
2023-05-09T05:39:38.565Z,13.20
2023-05-09T05:42:05.993Z,13.20
2023-05-09T05:44:33.233Z,13.20
2023-05-09T05:47:00.615Z,13.20
2023-05-09T05:49:27.868Z,13.10
2023-05-09T05:51:55.246Z,13.10
2023-05-09T05:54:22.490Z,13.10
2023-05-09T05:56:49.823Z,13.10
2023-05-09T05:59:17.081Z,13.10
2023-05-09T06:01:45.475Z,13.20
2023-05-09T06:04:12.740Z,13.20
2023-05-09T06:06:40.001Z,13.30
2023-05-09T06:09:07.260Z,13.30
2023-05-09T06:11:35.373Z,13.30
2023-05-09T06:14:02.625Z,13.30
2023-05-09T06:16:29.914Z,13.30
2023-05-09T06:18:57.404Z,13.30
2023-05-09T06:21:24.668Z,13.30
2023-05-09T06:24:05.897Z,13.20
2023-05-09T06:26:37.495Z,13.30
2023-05-09T06:29:06.369Z,13.30
2023-05-09T06:31:38.426Z,13.20
2023-05-09T06:34:06.227Z,13.30
2023-05-09T06:36:33.932Z,13.30
2023-05-09T06:39:01.592Z,13.30
2023-05-09T06:41:28.869Z,13.30
2023-05-09T06:43:56.265Z,13.40
2023-05-09T06:46:23.584Z,13.40
2023-05-09T06:48:50.918Z,13.40
2023-05-09T06:51:18.261Z,13.40
2023-05-09T06:53:45.556Z,13.50
2023-05-09T06:56:12.855Z,13.50
2023-05-09T06:58:40.161Z,13.50
2023-05-09T07:01:07.712Z,13.60
2023-05-09T07:03:35.066Z,13.60
2023-05-09T07:06:02.376Z,13.60
2023-05-09T07:08:29.647Z,13.60
2023-05-09T07:10:56.890Z,13.70
2023-05-09T07:13:24.208Z,13.70
2023-05-09T07:15:51.565Z,13.70
2023-05-09T07:18:18.848Z,13.80
2023-05-09T07:20:46.539Z,13.90
2023-05-09T07:23:13.969Z,13.90
2023-05-09T07:25:41.438Z,13.90
2023-05-09T07:28:08.809Z,13.90
2023-05-09T07:30:36.114Z,13.90
2023-05-09T07:33:03.880Z,13.90
2023-05-09T07:35:31.233Z,14.00
2023-05-09T07:37:58.501Z,14.00
2023-05-09T07:40:26.361Z,14.10
2023-05-09T07:42:55.165Z,14.20
2023-05-09T07:45:23.898Z,14.10
2023-05-09T07:47:51.477Z,14.20
2023-05-09T07:50:18.799Z,14.10
2023-05-09T07:52:46.306Z,14.20
2023-05-09T07:55:13.856Z,14.20
2023-05-09T07:57:41.444Z,14.20
2023-05-09T08:00:10.556Z,14.20
2023-05-09T08:02:38.708Z,14.30
2023-05-09T08:05:06.549Z,14.30
2023-05-09T08:07:33.884Z,14.30
2023-05-09T08:10:01.114Z,14.30
2023-05-09T08:12:28.460Z,14.30
2023-05-09T08:14:55.933Z,14.30
2023-05-09T08:17:23.240Z,14.30
2023-05-09T08:19:50.633Z,14.40
2023-05-09T08:22:21.058Z,14.50
2023-05-09T08:24:48.349Z,14.50
2023-05-09T08:27:15.856Z,14.60
2023-05-09T08:29:43.772Z,14.50
2023-05-09T08:32:11.128Z,14.60
2023-05-09T08:34:38.760Z,14.60
2023-05-09T08:37:06.815Z,14.60
2023-05-09T08:39:35.312Z,14.50
2023-05-09T08:42:03.057Z,14.70
2023-05-09T08:44:31.754Z,14.50
2023-05-09T08:46:59.893Z,14.70
2023-05-09T08:49:28.087Z,14.80
2023-05-09T08:51:56.210Z,14.70
2023-05-09T08:54:24.096Z,14.80
2023-05-09T08:56:51.881Z,14.90
2023-05-09T08:59:19.658Z,14.90
2023-05-09T09:01:47.487Z,14.90
2023-05-09T09:04:15.744Z,14.90
2023-05-09T09:06:43.692Z,15.00
2023-05-09T09:09:11.953Z,15.10
2023-05-09T09:11:40.564Z,15.20
2023-05-09T09:14:15.762Z,15.30
2023-05-09T09:16:44.563Z,15.30
2023-05-09T09:19:13.464Z,15.40
2023-05-09T09:21:42.477Z,15.40
2023-05-09T09:24:12.802Z,15.60
2023-05-09T09:26:48.309Z,15.60
2023-05-09T09:29:18.829Z,15.70
2023-05-09T09:31:46.767Z,15.80
2023-05-09T09:34:19.146Z,15.80
2023-05-09T09:36:48.406Z,15.80
2023-05-09T09:39:16.062Z,15.80
2023-05-09T09:41:44.873Z,15.80
2023-05-09T09:44:13.492Z,15.80
2023-05-09T09:46:51.307Z,15.80
2023-05-09T09:49:26.658Z,15.80
2023-05-09T09:51:55.028Z,15.70
2023-05-09T09:54:23.489Z,15.50
2023-05-09T09:56:55.092Z,15.50
2023-05-09T09:59:25.268Z,15.50
2023-05-09T10:01:56.223Z,15.50
2023-05-09T10:04:27.374Z,15.60
2023-05-09T10:07:03.554Z,15.70
2023-05-09T10:09:32.200Z,15.70
2023-05-09T10:12:04.320Z,15.80
2023-05-09T10:14:35.093Z,15.90
2023-05-09T10:17:04.460Z,16.00
2023-05-09T10:19:32.361Z,16.10
2023-05-09T10:22:04.783Z,16.20
2023-05-09T10:24:35.833Z,16.10
2023-05-09T10:27:06.940Z,16.10
2023-05-09T10:29:35.192Z,16.10
2023-05-09T10:32:06.741Z,16.20
2023-05-09T10:34:34.894Z,16.40
2023-05-09T10:37:02.226Z,16.40
2023-05-09T10:39:30.624Z,16.50
2023-05-09T10:41:59.109Z,16.70
2023-05-09T10:44:26.612Z,16.60
2023-05-09T10:46:54.109Z,16.50
2023-05-09T10:49:21.827Z,16.50
2023-05-09T10:51:52.314Z,16.60
2023-05-09T10:54:28.044Z,16.90
2023-05-09T10:56:57.996Z,17.40
2023-05-09T10:59:40.530Z,17.80
2023-05-09T11:02:14.735Z,17.70
2023-05-09T11:04:42.267Z,17.70
2023-05-09T11:07:25.878Z,17.90
2023-05-09T11:10:07.148Z,18.10
2023-05-09T11:12:34.554Z,18.10
2023-05-09T11:15:06.159Z,17.80
2023-05-09T11:17:37.507Z,17.80
2023-05-09T11:20:06.177Z,17.70
2023-05-09T11:22:40.114Z,17.50
2023-05-09T11:25:08.208Z,17.60
2023-05-09T11:27:46.682Z,17.60
2023-05-09T11:30:19.700Z,17.60
2023-05-09T11:32:50.845Z,17.60
2023-05-09T11:35:20.305Z,17.60
2023-05-09T11:37:52.565Z,17.60
2023-05-09T11:40:21.201Z,17.60
2023-05-09T11:42:50.106Z,17.70
2023-05-09T11:45:18.018Z,17.80
2023-05-09T11:47:47.919Z,18.10
2023-05-09T11:50:19.889Z,18.30
2023-05-09T11:52:48.001Z,18.20
2023-05-09T11:55:32.433Z,18.00
2023-05-09T11:58:00.637Z,17.80
2023-05-09T12:00:27.960Z,17.60
2023-05-09T12:02:55.509Z,17.40
2023-05-09T12:05:23.679Z,17.40
2023-05-09T12:07:52.357Z,17.30
2023-05-09T12:10:21.250Z,17.30
2023-05-09T12:12:50.109Z,17.30
2023-05-09T12:15:18.610Z,17.30
2023-05-09T12:17:47.673Z,17.30
2023-05-09T12:20:16.319Z,17.30
2023-05-09T12:22:43.989Z,17.50
2023-05-09T12:25:12.276Z,17.80
2023-05-09T12:27:41.690Z,18.20
2023-05-09T12:30:18.565Z,18.40
2023-05-09T12:32:47.348Z,18.60
2023-05-09T12:35:19.527Z,18.70
2023-05-09T12:38:00.391Z,18.90
2023-05-09T12:40:27.950Z,19.00
2023-05-09T12:43:01.025Z,19.10
2023-05-09T12:45:28.520Z,19.20
2023-05-09T12:47:57.315Z,19.30
2023-05-09T12:50:36.705Z,19.30
2023-05-09T12:53:05.331Z,19.30
2023-05-09T12:55:38.936Z,19.30
2023-05-09T12:58:06.211Z,19.30
2023-05-09T13:00:43.628Z,19.40
2023-05-09T13:03:21.180Z,19.60
2023-05-09T13:05:56.379Z,19.90
2023-05-09T13:08:23.849Z,19.80
2023-05-09T13:10:57.736Z,19.70
2023-05-09T13:13:31.711Z,19.40
2023-05-09T13:16:00.897Z,19.20
2023-05-09T13:18:28.724Z,19.10
2023-05-09T13:20:56.466Z,19.10
2023-05-09T13:23:26.532Z,19.30
2023-05-09T13:25:55.524Z,19.70
2023-05-09T13:28:23.280Z,20.30
2023-05-09T13:30:51.277Z,21.00
2023-05-09T13:33:25.966Z,21.10
2023-05-09T13:35:54.585Z,21.00
2023-05-09T13:38:22.596Z,21.20
2023-05-09T13:40:53.090Z,21.50
2023-05-09T13:43:21.027Z,21.20
2023-05-09T13:45:48.754Z,20.80
2023-05-09T13:48:17.144Z,21.10
2023-05-09T13:50:44.989Z,20.80
2023-05-09T13:53:13.539Z,20.50
2023-05-09T13:55:40.857Z,20.10
2023-05-09T13:58:08.200Z,19.90
2023-05-09T14:00:35.594Z,19.60
2023-05-09T14:03:04.051Z,19.40
2023-05-09T14:05:33.297Z,19.20
2023-05-09T14:08:01.690Z,19.10
2023-05-09T14:10:29.086Z,18.90
2023-05-09T14:12:57.007Z,18.80
2023-05-09T14:15:24.779Z,18.60
2023-05-09T14:17:52.158Z,18.50
2023-05-09T14:20:20.399Z,18.50
2023-05-09T14:22:48.292Z,18.50
2023-05-09T14:25:15.717Z,18.50
2023-05-09T14:27:42.966Z,18.40
2023-05-09T14:30:10.505Z,18.40
2023-05-09T14:32:37.825Z,18.30
2023-05-09T14:35:05.355Z,18.30
2023-05-09T14:37:33.300Z,18.20
2023-05-09T14:40:05.564Z,18.20
2023-05-09T14:42:32.965Z,18.30
2023-05-09T14:45:00.390Z,18.50
2023-05-09T14:47:27.729Z,18.70
2023-05-09T14:49:55.638Z,18.90
2023-05-09T14:52:22.933Z,19.30
2023-05-09T14:54:50.213Z,19.40
2023-05-09T14:57:17.488Z,19.50
2023-05-09T14:59:45.268Z,19.50
2023-05-09T15:02:12.691Z,19.50
2023-05-09T15:04:41.362Z,19.20
2023-05-09T15:07:08.887Z,19.20
2023-05-09T15:09:36.147Z,19.30
2023-05-09T15:12:03.610Z,19.40
2023-05-09T15:14:31.044Z,19.50
2023-05-09T15:17:01.431Z,19.40
2023-05-09T15:19:31.614Z,19.40
2023-05-09T15:21:59.716Z,19.30
2023-05-09T15:24:27.007Z,19.30
2023-05-09T15:26:54.398Z,19.30
2023-05-09T15:29:21.867Z,19.40
2023-05-09T15:31:49.146Z,19.20
2023-05-09T15:34:20.092Z,19.20
2023-05-09T15:36:47.831Z,19.10
2023-05-09T15:39:15.063Z,19.10
2023-05-09T15:41:42.512Z,19.00
2023-05-09T15:44:09.866Z,18.80
2023-05-09T15:46:37.735Z,18.70
2023-05-09T15:49:05.106Z,18.70
2023-05-09T15:51:32.611Z,18.70
2023-05-09T15:53:59.979Z,18.60
2023-05-09T15:56:27.666Z,18.60
2023-05-09T15:58:54.893Z,18.50
2023-05-09T16:01:22.687Z,18.30
2023-05-09T16:03:50.208Z,18.20
2023-05-09T16:06:23.156Z,18.20
2023-05-09T16:08:51.760Z,18.10
2023-05-09T16:11:19.035Z,18.10
2023-05-09T16:13:46.651Z,18.00
2023-05-09T16:16:14.251Z,18.00
2023-05-09T16:18:41.723Z,17.90
2023-05-09T16:21:09.181Z,17.80
2023-05-09T16:23:37.184Z,17.70
2023-05-09T16:26:04.555Z,17.60
2023-05-09T16:28:32.340Z,17.50
2023-05-09T16:31:05.079Z,17.30
2023-05-09T16:33:32.781Z,17.30
2023-05-09T16:36:00.673Z,17.30
2023-05-09T16:38:28.859Z,17.30
2023-05-09T16:40:56.404Z,17.30
2023-05-09T16:43:23.691Z,17.30
2023-05-09T16:45:52.758Z,17.30
2023-05-09T16:48:20.226Z,17.20
2023-05-09T16:50:48.366Z,17.10
2023-05-09T16:53:17.609Z,17.10
2023-05-09T16:55:45.170Z,17.10
2023-05-09T16:58:13.664Z,17.10
2023-05-09T17:00:41.088Z,17.00
2023-05-09T17:03:08.656Z,17.00
2023-05-09T17:05:35.980Z,16.90
2023-05-09T17:08:03.583Z,16.80
2023-05-09T17:10:31.108Z,16.80
2023-05-09T17:12:58.485Z,16.80
2023-05-09T17:15:26.316Z,16.80
2023-05-09T17:17:53.801Z,16.80
2023-05-09T17:20:21.206Z,16.80
2023-05-09T17:22:48.676Z,16.80
2023-05-09T17:25:16.789Z,16.80
2023-05-09T17:27:44.166Z,16.80
2023-05-09T17:30:11.652Z,16.90
2023-05-09T17:32:39.034Z,16.70
2023-05-09T17:35:06.801Z,16.30
2023-05-09T17:37:34.350Z,16.00
2023-05-09T17:40:02.202Z,15.60
2023-05-09T17:42:29.707Z,15.20
2023-05-09T17:44:57.209Z,14.90
2023-05-09T17:47:24.713Z,14.80
2023-05-09T17:49:52.353Z,14.70
2023-05-09T17:52:22.778Z,14.60
2023-05-09T17:54:50.045Z,14.60
2023-05-09T17:57:17.371Z,14.40
2023-05-09T17:59:47.954Z,14.40
2023-05-09T18:02:20.780Z,14.40
2023-05-09T18:04:49.612Z,14.50
2023-05-09T18:07:17.206Z,14.50
2023-05-09T18:09:46.560Z,14.50
2023-05-09T18:12:15.987Z,14.60
2023-05-09T18:14:44.753Z,14.40
2023-05-09T18:17:12.370Z,14.30
2023-05-09T18:19:42.086Z,14.40
2023-05-09T18:22:09.254Z,14.40
2023-05-09T18:24:36.909Z,14.30
2023-05-09T18:27:04.427Z,14.30
2023-05-09T18:29:31.824Z,14.20
2023-05-09T18:31:59.124Z,14.10
2023-05-09T18:34:28.193Z,14.00
2023-05-09T18:36:55.865Z,14.00
2023-05-09T18:39:23.660Z,14.00
2023-05-09T18:41:50.924Z,14.00
2023-05-09T18:44:18.254Z,13.90
2023-05-09T18:46:45.763Z,13.70
2023-05-09T18:49:13.942Z,13.70
2023-05-09T18:51:41.825Z,13.70
2023-05-09T18:54:14.686Z,13.60
2023-05-09T18:56:43.126Z,13.60
2023-05-09T18:59:14.496Z,13.50
2023-05-09T19:01:45.146Z,13.40
2023-05-09T19:04:17.611Z,13.40
2023-05-09T19:06:46.350Z,13.40
2023-05-09T19:09:13.739Z,13.40
2023-05-09T19:11:41.314Z,13.30
2023-05-09T19:14:08.708Z,13.30
2023-05-09T19:16:36.047Z,13.30
2023-05-09T19:19:03.489Z,13.20
2023-05-09T19:24:20.804Z,13.10
2023-05-09T19:26:49.856Z,13.00
2023-05-09T19:29:18.554Z,13.10
2023-05-09T19:31:45.981Z,13.20
2023-05-09T19:34:13.616Z,13.10
2023-05-09T19:36:41.167Z,13.20
2023-05-09T19:39:09.133Z,13.10
2023-05-09T19:41:36.737Z,13.10
2023-05-09T19:44:04.068Z,13.00
2023-05-09T19:46:31.324Z,12.90
2023-05-09T19:48:58.856Z,12.90
2023-05-09T19:51:32.027Z,12.90
2023-05-09T19:54:04.027Z,12.90
2023-05-09T19:56:36.134Z,12.90
2023-05-09T19:59:05.334Z,12.90
2023-05-09T20:01:36.330Z,12.90
2023-05-09T20:04:08.449Z,12.90
2023-05-09T20:06:36.082Z,12.90
2023-05-09T20:09:04.720Z,12.80
2023-05-09T20:11:32.379Z,12.80
2023-05-09T20:13:59.816Z,12.80
